Time;durP1;ratioP1;P1;durP2;ratioP2;P2;SDS_P1;SDS_P2;PMS_P1;PMS_P2;Temp;Humidity;BMP_temperature;BMP_pressure;BME280_temperature;BME280_humidity;BME280_pressure;Samples;Min_cycle;Max_cycle;Signal;HPM_P1;HPM_P2
2022/01/22 00:00:44;;;;;;;11.97;7.60;;;;;;;;;;5075442;28;20453;-64
2022/01/22 00:03:10;;;;;;;13.10;7.00;;;;;;;;;;5075651;28;20421;-64
2022/01/22 00:05:37;;;;;;;9.67;7.23;;;;;;;;;;5075549;28;20532;-63
2022/01/22 00:08:04;;;;;;;11.77;5.70;;;;;;;;;;5075351;28;20764;-63
2022/01/22 00:10:30;;;;;;;14.33;7.80;;;;;;;;;;5075644;28;20416;-63
2022/01/22 00:14:23;;;;;;;12.83;7.60;;;;;;;;;;5075408;28;20497;-63
2022/01/22 00:15:42;;;;;;;7.90;5.53;;;;;;;;;;5075388;28;20413;-63
2022/01/22 00:18:09;;;;;;;11.07;6.40;;;;;;;;;;5075421;28;20965;-63
2022/01/22 00:20:36;;;;;;;11.50;5.80;;;;;;;;;;5075339;28;20450;-64
2022/01/22 00:23:03;;;;;;;9.47;4.87;;;;;;;;;;5075173;28;20405;-63
2022/01/22 00:25:29;;;;;;;6.27;4.83;;;;;;;;;;5075257;28;20851;-63
2022/01/22 00:27:55;;;;;;;6.30;4.40;;;;;;;;;;5075260;28;20501;-64
2022/01/22 00:30:23;;;;;;;6.90;5.00;;;;;;;;;;5075135;28;20403;-63
2022/01/22 00:32:50;;;;;;;5.50;3.70;;;;;;;;;;5074956;28;20461;-67
2022/01/22 00:35:16;;;;;;;8.80;4.63;;;;;;;;;;5075096;28;20413;-63
2022/01/22 00:37:44;;;;;;;5.83;4.73;;;;;;;;;;5075006;28;20401;-63
2022/01/22 00:40:11;;;;;;;7.50;4.47;;;;;;;;;;5075085;28;20408;-64
2022/01/22 00:42:40;;;;;;;9.50;5.30;;;;;;;;;;5074912;28;20888;-65
2022/01/22 00:45:06;;;;;;;6.10;4.40;;;;;;;;;;5074955;28;20407;-63
2022/01/22 00:47:32;;;;;;;6.43;4.83;;;;;;;;;;5074715;28;20403;-63
2022/01/22 00:49:58;;;;;;;8.30;5.50;;;;;;;;;;5074840;28;20485;-63
2022/01/22 00:52:24;;;;;;;7.43;4.37;;;;;;;;;;5074572;28;20518;-63
2022/01/22 00:54:50;;;;;;;6.60;4.50;;;;;;;;;;5056692;28;20402;-63
2022/01/22 00:57:16;;;;;;;6.90;4.57;;;;;;;;;;5074494;28;20421;-63
2022/01/22 00:59:42;;;;;;;7.23;5.13;;;;;;;;;;5074557;28;20410;-65
2022/01/22 01:02:08;;;;;;;7.57;4.83;;;;;;;;;;5074442;28;20460;-64
2022/01/22 01:04:36;;;;;;;7.03;4.90;;;;;;;;;;5074406;28;20418;-63
2022/01/22 01:07:02;;;;;;;7.20;4.93;;;;;;;;;;5073754;28;20500;-63
2022/01/22 01:09:28;;;;;;;7.27;5.20;;;;;;;;;;5056402;28;20406;-64
2022/01/22 01:11:59;;;;;;;7.90;4.73;;;;;;;;;;5056292;28;20514;-64
2022/01/22 01:14:36;;;;;;;8.63;5.20;;;;;;;;;;5074439;28;20413;-64
2022/01/22 01:33:24;;;;;;;10.03;4.90;;;;;;;;;;5073935;28;20514;-69
2022/01/22 01:35:50;;;;;;;7.33;6.03;;;;;;;;;;5073919;28;20431;-64
2022/01/22 01:38:20;;;;;;;7.03;4.90;;;;;;;;;;5073737;28;20413;-67
2022/01/22 01:40:54;;;;;;;7.10;5.37;;;;;;;;;;5073843;28;20729;-66
2022/01/22 01:43:29;;;;;;;9.13;5.80;;;;;;;;;;5073750;28;20470;-67
2022/01/22 01:45:55;;;;;;;6.73;4.80;;;;;;;;;;5073940;28;20876;-64
2022/01/22 01:48:26;;;;;;;13.40;6.63;;;;;;;;;;5055611;28;20883;-63
2022/01/22 01:50:52;;;;;;;9.63;5.30;;;;;;;;;;5073521;28;20955;-64
2022/01/22 01:53:48;;;;;;;10.57;6.00;;;;;;;;;;5073551;28;20487;-69
2022/01/22 01:58:59;;;;;;;9.70;5.00;;;;;;;;;;5073648;28;20575;-65
2022/01/22 02:01:25;;;;;;;8.23;5.37;;;;;;;;;;5073225;28;20477;-65
2022/01/22 02:03:51;;;;;;;9.03;5.67;;;;;;;;;;5073629;28;20449;-64
2022/01/22 02:06:17;;;;;;;8.27;5.60;;;;;;;;;;5073339;28;20493;-64
2022/01/22 02:08:43;;;;;;;7.20;5.43;;;;;;;;;;5073226;28;20899;-64
2022/01/22 02:11:11;;;;;;;8.60;5.13;;;;;;;;;;5073137;28;20802;-65
2022/01/22 02:13:59;;;;;;;9.73;5.93;;;;;;;;;;5073287;28;20414;-64
2022/01/22 02:24:45;;;;;;;8.70;5.30;;;;;;;;;;5073644;28;20463;-64
2022/01/22 02:27:11;;;;;;;12.30;5.90;;;;;;;;;;5073164;28;20489;-64
2022/01/22 02:29:37;;;;;;;8.57;5.90;;;;;;;;;;5055067;28;20426;-65
2022/01/22 02:34:51;;;;;;;10.20;6.00;;;;;;;;;;5073129;28;20403;-64
2022/01/22 02:37:19;;;;;;;9.50;6.07;;;;;;;;;;5073090;28;21045;-64
2022/01/22 02:40:11;;;;;;;7.17;5.27;;;;;;;;;;5073063;28;20394;-64
2022/01/22 02:42:34;;;;;;;9.07;5.60;;;;;;;;;;5072283;28;20511;-64
2022/01/22 02:45:03;;;;;;;9.70;5.30;;;;;;;;;;5073042;28;20427;-63
2022/01/22 02:47:29;;;;;;;10.40;6.47;;;;;;;;;;5072967;28;20448;-64
2022/01/22 02:49:55;;;;;;;11.57;6.23;;;;;;;;;;5072643;28;20414;-64
2022/01/22 02:52:22;;;;;;;9.40;6.47;;;;;;;;;;5072845;28;20809;-64
2022/01/22 02:54:49;;;;;;;8.43;6.53;;;;;;;;;;5073035;28;20443;-64
2022/01/22 02:57:15;;;;;;;15.90;5.97;;;;;;;;;;5072922;28;20895;-64
2022/01/22 02:59:41;;;;;;;11.00;6.23;;;;;;;;;;5072805;28;20842;-65
2022/01/22 03:02:08;;;;;;;10.53;6.10;;;;;;;;;;5089887;28;20563;-64
2022/01/22 03:04:34;;;;;;;11.83;7.33;;;;;;;;;;5091740;28;20409;-63
2022/01/22 03:07:00;;;;;;;10.07;6.60;;;;;;;;;;5092959;28;20413;-65
2022/01/22 03:09:29;;;;;;;10.83;6.70;;;;;;;;;;5092947;28;20470;-66
2022/01/22 03:22:18;;;;;;;9.33;6.40;;;;;;;;;;5092802;28;20476;-64
2022/01/22 03:27:31;;;;;;;12.03;6.03;;;;;;;;;;5092797;28;20388;-64
2022/01/22 03:29:57;;;;;;;9.80;5.50;;;;;;;;;;5093823;28;20410;-65
2022/01/22 03:32:26;;;;;;;12.90;6.20;;;;;;;;;;5095125;28;20548;-64
2022/01/22 03:35:08;;;;;;;10.60;6.30;;;;;;;;;;5096550;28;20899;-64
2022/01/22 03:37:35;;;;;;;10.60;5.97;;;;;;;;;;5096509;28;20400;-64
2022/01/22 03:40:01;;;;;;;9.97;6.10;;;;;;;;;;5096459;28;20742;-64
2022/01/22 03:42:27;;;;;;;7.33;5.57;;;;;;;;;;5096356;28;20405;-64
2022/01/22 03:44:53;;;;;;;8.70;5.97;;;;;;;;;;5096285;28;20409;-65
2022/01/22 03:47:19;;;;;;;8.87;5.87;;;;;;;;;;5096245;28;20419;-64
2022/01/22 03:49:45;;;;;;;8.27;5.63;;;;;;;;;;5096265;28;20402;-65
2022/01/22 03:52:11;;;;;;;10.63;6.70;;;;;;;;;;5096096;28;20486;-64
2022/01/22 03:54:37;;;;;;;9.67;6.13;;;;;;;;;;5096161;28;20520;-65
2022/01/22 03:57:03;;;;;;;12.57;6.47;;;;;;;;;;5096164;28;20466;-64
2022/01/22 03:59:30;;;;;;;9.80;6.80;;;;;;;;;;5096007;28;20400;-64
2022/01/22 04:04:50;;;;;;;9.53;6.37;;;;;;;;;;5075688;28;20405;-65
2022/01/22 04:09:48;;;;;;;9.60;6.50;;;;;;;;;;5075652;28;20413;-64
2022/01/22 04:12:21;;;;;;;8.70;5.87;;;;;;;;;;5075499;28;20465;-65
2022/01/22 04:14:53;;;;;;;8.10;5.90;;;;;;;;;;5075591;28;20402;-65
2022/01/22 04:24:50;;;;;;;8.83;6.17;;;;;;;;;;5075499;28;20888;-67
2022/01/22 04:25:42;;;;;;;8.17;5.97;;;;;;;;;;5075453;28;20397;-64
2022/01/22 04:28:09;;;;;;;12.37;7.47;;;;;;;;;;5075261;28;20406;-63
2022/01/22 04:30:35;;;;;;;10.00;6.13;;;;;;;;;;5075174;28;21010;-64
2022/01/22 04:33:04;;;;;;;8.27;6.10;;;;;;;;;;5075033;28;20554;-64
2022/01/22 04:35:30;;;;;;;9.40;6.30;;;;;;;;;;5075065;28;20789;-64
2022/01/22 04:37:56;;;;;;;7.83;5.60;;;;;;;;;;5075010;28;20410;-64
2022/01/22 04:40:23;;;;;;;12.30;6.50;;;;;;;;;;5075168;28;20405;-64
2022/01/22 04:42:49;;;;;;;9.93;6.40;;;;;;;;;;5074263;28;20891;-64
2022/01/22 04:55:37;;;;;;;11.20;6.67;;;;;;;;;;5074757;28;20438;-65
2022/01/22 04:58:03;;;;;;;10.93;7.30;;;;;;;;;;5074573;28;20426;-64
2022/01/22 05:00:31;;;;;;;13.13;7.10;;;;;;;;;;5074374;28;20972;-64
2022/01/22 05:02:58;;;;;;;8.87;6.47;;;;;;;;;;5074562;28;20402;-64
2022/01/22 05:05:24;;;;;;;11.13;7.30;;;;;;;;;;5056576;28;20973;-67
2022/01/22 05:07:50;;;;;;;10.73;7.30;;;;;;;;;;5074389;28;20426;-63
2022/01/22 05:10:16;;;;;;;13.57;6.77;;;;;;;;;;5074356;28;20927;-64
2022/01/22 05:12:42;;;;;;;12.60;7.93;;;;;;;;;;5074298;28;20496;-64
2022/01/22 05:15:09;;;;;;;9.73;6.00;;;;;;;;;;5074367;28;20414;-64
2022/01/22 05:17:38;;;;;;;11.70;7.50;;;;;;;;;;5074269;28;20444;-66
2022/01/22 05:20:11;;;;;;;9.23;6.63;;;;;;;;;;5074270;28;20451;-64
2022/01/22 05:25:11;;;;;;;11.40;6.40;;;;;;;;;;5074096;28;20405;-66
2022/01/22 05:38:07;;;;;;;11.20;7.70;;;;;;;;;;5074094;28;20473;-64
2022/01/22 05:40:33;;;;;;;11.87;7.10;;;;;;;;;;5073830;28;20405;-64
2022/01/22 05:42:59;;;;;;;10.33;6.57;;;;;;;;;;5073761;28;20413;-64
2022/01/22 05:45:25;;;;;;;11.40;6.50;;;;;;;;;;5055788;28;20422;-65
2022/01/22 05:47:51;;;;;;;11.67;6.90;;;;;;;;;;5055962;28;20902;-64
2022/01/22 05:50:31;;;;;;;12.37;7.13;;;;;;;;;;5073506;28;20418;-64
2022/01/22 05:53:02;;;;;;;10.40;6.67;;;;;;;;;;5073391;28;20529;-69
2022/01/22 06:00:57;;;;;;;14.13;7.43;;;;;;;;;;5073456;28;20455;-72
2022/01/22 06:03:23;;;;;;;14.90;7.47;;;;;;;;;;5073450;28;20417;-64
2022/01/22 06:05:49;;;;;;;9.93;6.70;;;;;;;;;;5073346;28;20397;-64
2022/01/22 06:08:17;;;;;;;10.90;6.70;;;;;;;;;;5073333;28;20417;-65
2022/01/22 06:10:46;;;;;;;10.40;6.40;;;;;;;;;;5073271;28;20405;-67
2022/01/22 06:13:19;;;;;;;10.40;6.53;;;;;;;;;;5073312;28;20465;-64
2022/01/22 06:15:45;;;;;;;10.40;6.30;;;;;;;;;;5073351;28;20482;-67
2022/01/22 06:18:11;;;;;;;16.60;7.10;;;;;;;;;;5073211;28;20524;-64
2022/01/22 06:20:37;;;;;;;11.37;6.10;;;;;;;;;;5073301;28;20409;-64
2022/01/22 06:23:03;;;;;;;10.93;5.80;;;;;;;;;;5073224;28;20402;-64
2022/01/22 06:25:29;;;;;;;14.33;6.50;;;;;;;;;;5073267;28;20498;-64
2022/01/22 06:27:55;;;;;;;12.50;6.40;;;;;;;;;;5073118;28;20553;-64
2022/01/22 06:30:21;;;;;;;9.70;6.63;;;;;;;;;;5073112;28;20799;-64
2022/01/22 06:32:47;;;;;;;10.90;6.63;;;;;;;;;;5073069;28;20473;-64
2022/01/22 06:35:14;;;;;;;9.37;6.67;;;;;;;;;;5073044;28;20447;-64
2022/01/22 06:37:40;;;;;;;11.03;7.00;;;;;;;;;;5073017;28;20410;-64
2022/01/22 06:42:33;;;;;;;7.97;5.53;;;;;;;;;;5073007;28;20448;-64
2022/01/22 06:45:00;;;;;;;9.30;6.47;;;;;;;;;;5073066;28;20392;-66
2022/01/22 06:47:26;;;;;;;7.80;5.93;;;;;;;;;;5072972;28;20410;-65
2022/01/22 06:49:53;;;;;;;10.90;6.80;;;;;;;;;;5072800;28;20880;-66
2022/01/22 06:52:19;;;;;;;16.60;6.73;;;;;;;;;;5072871;28;20819;-64
2022/01/22 06:54:45;;;;;;;9.30;6.20;;;;;;;;;;5055066;28;20400;-65
2022/01/22 06:57:12;;;;;;;10.50;6.73;;;;;;;;;;5072985;28;20867;-65
2022/01/22 06:59:38;;;;;;;13.20;7.13;;;;;;;;;;5072897;28;20903;-67
2022/01/22 07:02:04;;;;;;;14.37;6.70;;;;;;;;;;5072660;28;20481;-71
2022/01/22 07:04:31;;;;;;;20.33;7.20;;;;;;;;;;5073217;28;20405;-66
2022/01/22 07:06:57;;;;;;;13.03;7.30;;;;;;;;;;5076817;28;20437;-69
2022/01/22 07:09:24;;;;;;;10.70;6.70;;;;;;;;;;5076662;28;20502;-70
2022/01/22 07:11:50;;;;;;;13.37;6.70;;;;;;;;;;5058614;28;20502;-66
2022/01/22 07:14:16;;;;;;;11.50;6.60;;;;;;;;;;5076532;28;20900;-68
2022/01/22 07:16:42;;;;;;;12.53;7.20;;;;;;;;;;5076554;28;20427;-64
2022/01/22 07:19:08;;;;;;;10.80;6.40;;;;;;;;;;5076569;28;20430;-71
2022/01/22 07:21:36;;;;;;;8.27;6.50;;;;;;;;;;5076481;28;20401;-64
2022/01/22 07:26:29;;;;;;;16.73;7.60;;;;;;;;;;5076419;28;20744;-66
2022/01/22 07:28:56;;;;;;;13.67;6.40;;;;;;;;;;5076265;28;20876;-69
2022/01/22 07:31:24;;;;;;;12.20;7.40;;;;;;;;;;5076450;28;20402;-70
2022/01/22 07:33:50;;;;;;;10.80;7.17;;;;;;;;;;5076373;28;20454;-73
2022/01/22 07:36:17;;;;;;;10.90;5.80;;;;;;;;;;5076215;28;20412;-72
2022/01/22 07:38:43;;;;;;;11.67;7.40;;;;;;;;;;5076150;28;20397;-69
2022/01/22 07:41:09;;;;;;;16.07;7.40;;;;;;;;;;5075927;28;20465;-74
2022/01/22 07:43:36;;;;;;;13.43;7.33;;;;;;;;;;5076019;28;20436;-73
2022/01/22 07:46:02;;;;;;;14.43;7.83;;;;;;;;;;5076010;28;20915;-70
2022/01/22 07:48:28;;;;;;;12.30;6.80;;;;;;;;;;5075990;28;20434;-66
2022/01/22 07:50:54;;;;;;;12.63;7.80;;;;;;;;;;5075827;28;20884;-70
2022/01/22 07:53:20;;;;;;;10.30;6.67;;;;;;;;;;5075847;28;20466;-68
2022/01/22 07:55:46;;;;;;;11.87;7.30;;;;;;;;;;5057953;28;20420;-72
2022/01/22 07:58:14;;;;;;;8.93;6.30;;;;;;;;;;5075756;28;20493;-74
2022/01/22 08:00:40;;;;;;;12.27;7.33;;;;;;;;;;5075532;28;20453;-72
2022/01/22 08:03:06;;;;;;;10.00;6.97;;;;;;;;;;5075800;28;20497;-69
2022/01/22 08:05:33;;;;;;;13.50;6.97;;;;;;;;;;5075590;28;20404;-71
2022/01/22 08:07:59;;;;;;;10.33;6.57;;;;;;;;;;5057670;28;20413;-74
2022/01/22 08:10:25;;;;;;;11.57;6.77;;;;;;;;;;5057491;28;20406;-73
2022/01/22 08:12:51;;;;;;;11.23;6.40;;;;;;;;;;5075446;28;20495;-74
2022/01/22 08:15:17;;;;;;;9.53;7.07;;;;;;;;;;5075480;28;20395;-72
2022/01/22 08:17:44;;;;;;;10.30;7.00;;;;;;;;;;5074080;28;20740;-68
2022/01/22 08:20:12;;;;;;;13.03;7.63;;;;;;;;;;5075349;28;20804;-66
2022/01/22 08:22:38;;;;;;;11.30;7.20;;;;;;;;;;5057419;28;20420;-67
2022/01/22 08:25:04;;;;;;;16.10;6.90;;;;;;;;;;5075327;28;20440;-66
2022/01/22 08:29:57;;;;;;;17.13;7.60;;;;;;;;;;5075086;28;20504;-72
2022/01/22 08:37:34;;;;;;;12.70;8.33;;;;;;;;;;5075403;28;20396;-72
2022/01/22 08:40:00;;;;;;;15.40;7.93;;;;;;;;;;5074951;28;20491;-65
2022/01/22 08:42:27;;;;;;;17.00;8.97;;;;;;;;;;5074984;28;20480;-64
2022/01/22 08:44:53;;;;;;;17.03;8.70;;;;;;;;;;5074990;28;20808;-65
2022/01/22 08:47:20;;;;;;;15.57;9.40;;;;;;;;;;5074670;28;20409;-63
2022/01/22 08:49:46;;;;;;;18.03;9.10;;;;;;;;;;5074908;28;20889;-66
2022/01/22 08:52:15;;;;;;;15.77;9.40;;;;;;;;;;5074718;28;20463;-72
2022/01/22 08:54:41;;;;;;;11.10;7.60;;;;;;;;;;5074695;28;20456;-66
2022/01/22 08:57:07;;;;;;;14.40;7.80;;;;;;;;;;5056857;28;20420;-64
2022/01/22 08:59:34;;;;;;;14.63;8.37;;;;;;;;;;5074551;28;20429;-67
2022/01/22 09:02:00;;;;;;;11.93;8.30;;;;;;;;;;5074485;28;20465;-66
2022/01/22 09:04:26;;;;;;;13.53;7.90;;;;;;;;;;5074492;28;20438;-64
2022/01/22 09:06:52;;;;;;;15.00;7.80;;;;;;;;;;5074336;28;20405;-65
2022/01/22 09:09:18;;;;;;;13.33;8.70;;;;;;;;;;5074473;28;20402;-65
2022/01/22 09:11:46;;;;;;;12.80;7.57;;;;;;;;;;5074262;28;20450;-64
2022/01/22 09:14:13;;;;;;;16.60;8.40;;;;;;;;;;5074271;28;20976;-65
2022/01/22 09:16:40;;;;;;;14.07;8.57;;;;;;;;;;5074130;28;20418;-64
2022/01/22 09:19:09;;;;;;;16.67;9.27;;;;;;;;;;5056287;28;20418;-64
2022/01/22 09:21:36;;;;;;;12.37;8.77;;;;;;;;;;5056244;28;20813;-65
2022/01/22 09:24:02;;;;;;;13.47;8.63;;;;;;;;;;5074096;28;20768;-66
2022/01/22 09:26:29;;;;;;;13.57;8.90;;;;;;;;;;5074076;28;20427;-66
2022/01/22 09:28:57;;;;;;;14.77;8.50;;;;;;;;;;5073378;28;20410;-65
2022/01/22 09:31:23;;;;;;;14.60;9.27;;;;;;;;;;5074013;28;20914;-65
2022/01/22 09:33:49;;;;;;;15.50;8.57;;;;;;;;;;5056016;28;20468;-74
2022/01/22 09:36:15;;;;;;;13.47;8.40;;;;;;;;;;5073919;28;20880;-66
2022/01/22 09:38:41;;;;;;;12.00;8.70;;;;;;;;;;5073886;28;20423;-70
2022/01/22 09:41:07;;;;;;;13.93;9.07;;;;;;;;;;5073871;28;20454;-71
2022/01/22 09:43:33;;;;;;;17.53;8.43;;;;;;;;;;5073922;28;20910;-73
2022/01/22 09:45:59;;;;;;;17.37;8.03;;;;;;;;;;5073784;28;20409;-75
2022/01/22 09:48:25;;;;;;;13.70;8.40;;;;;;;;;;5073677;28;20419;-68
2022/01/22 09:50:51;;;;;;;17.80;8.60;;;;;;;;;;5073590;28;20408;-67
2022/01/22 09:53:19;;;;;;;24.00;8.53;;;;;;;;;;5073551;28;20551;-70
2022/01/22 09:55:45;;;;;;;12.30;8.10;;;;;;;;;;5073595;28;20402;-67
2022/01/22 09:58:12;;;;;;;12.97;7.60;;;;;;;;;;5073479;28;20408;-70
2022/01/22 10:00:38;;;;;;;11.03;8.17;;;;;;;;;;5073297;28;20449;-69
2022/01/22 10:03:13;;;;;;;13.80;8.33;;;;;;;;;;5073515;28;20408;-69
2022/01/22 10:05:40;;;;;;;15.37;9.00;;;;;;;;;;5073389;28;20419;-66
2022/01/22 10:08:19;;;;;;;11.63;8.10;;;;;;;;;;5055428;28;20428;-72
2022/01/22 10:10:45;;;;;;;13.67;7.50;;;;;;;;;;5055315;28;20815;-68
2022/01/22 10:13:12;;;;;;;17.60;7.97;;;;;;;;;;5073261;28;20480;-68
2022/01/22 10:15:39;;;;;;;10.87;7.97;;;;;;;;;;5055411;28;20460;-68
2022/01/22 10:18:06;;;;;;;12.63;8.00;;;;;;;;;;5055402;28;20902;-73
2022/01/22 10:20:39;;;;;;;10.03;7.13;;;;;;;;;;5073188;28;20408;-74
2022/01/22 10:23:06;;;;;;;10.93;7.07;;;;;;;;;;5055238;28;20501;-71
2022/01/22 10:25:40;;;;;;;11.40;7.70;;;;;;;;;;5055322;28;20413;-73
2022/01/22 10:28:09;;;;;;;11.27;6.70;;;;;;;;;;5073253;28;20409;-73
2022/01/22 10:30:39;;;;;;;12.23;7.10;;;;;;;;;;5073156;28;20413;-72
2022/01/22 10:33:21;;;;;;;8.77;6.30;;;;;;;;;;5072995;28;20476;-70
2022/01/22 10:35:48;;;;;;;7.90;6.03;;;;;;;;;;5055151;28;20405;-71
2022/01/22 10:38:16;;;;;;;9.57;6.47;;;;;;;;;;5072795;28;20414;-72
2022/01/22 10:40:42;;;;;;;10.50;6.87;;;;;;;;;;5072078;28;20419;-73
2022/01/22 10:43:41;;;;;;;11.10;6.60;;;;;;;;;;5072832;28;20752;-75
2022/01/22 10:49:04;;;;;;;12.93;6.40;;;;;;;;;;5072882;28;20450;-74
2022/01/22 10:51:31;;;;;;;8.80;5.93;;;;;;;;;;5072812;28;20542;-71
2022/01/22 10:54:01;;;;;;;7.93;5.67;;;;;;;;;;5072870;28;20414;-72
2022/01/22 10:56:28;;;;;;;9.63;5.77;;;;;;;;;;5072717;28;20412;-71
2022/01/22 10:58:57;;;;;;;9.87;6.13;;;;;;;;;;5072926;28;20920;-73
2022/01/22 11:01:25;;;;;;;11.10;6.03;;;;;;;;;;5072638;28;20457;-74
2022/01/22 11:04:09;;;;;;;9.03;6.03;;;;;;;;;;5072814;28;20467;-71
2022/01/22 11:06:36;;;;;;;12.87;6.23;;;;;;;;;;5072796;28;20947;-73
2022/01/22 11:09:03;;;;;;;8.57;6.13;;;;;;;;;;5072606;28;20751;-75
2022/01/22 11:11:30;;;;;;;11.43;5.73;;;;;;;;;;5072757;28;20414;-73
2022/01/22 11:13:56;;;;;;;11.63;6.40;;;;;;;;;;5072718;28;20814;-73
2022/01/22 11:16:23;;;;;;;8.70;6.50;;;;;;;;;;5072813;28;20931;-64
2022/01/22 11:18:50;;;;;;;11.03;6.27;;;;;;;;;;5072828;28;20413;-63
2022/01/22 11:21:17;;;;;;;7.20;5.60;;;;;;;;;;5072788;28;20750;-62
2022/01/22 11:23:43;;;;;;;9.37;6.57;;;;;;;;;;5072698;28;20404;-64
2022/01/22 11:26:09;;;;;;;9.80;5.83;;;;;;;;;;5072577;28;20495;-64
2022/01/22 11:28:37;;;;;;;9.50;6.83;;;;;;;;;;5072601;28;20558;-64
2022/01/22 11:31:03;;;;;;;9.20;6.10;;;;;;;;;;5072562;28;20467;-63
2022/01/22 11:33:32;;;;;;;10.03;7.50;;;;;;;;;;5072457;28;20463;-63
2022/01/22 11:36:02;;;;;;;11.73;6.70;;;;;;;;;;5072387;28;20804;-65
2022/01/22 11:38:35;;;;;;;12.10;6.80;;;;;;;;;;5072458;28;20408;-63
2022/01/22 11:41:08;;;;;;;7.50;6.33;;;;;;;;;;5072488;28;20454;-64
2022/01/22 11:43:51;;;;;;;8.40;6.30;;;;;;;;;;5072448;28;20814;-64
2022/01/22 11:46:25;;;;;;;8.50;6.30;;;;;;;;;;5072464;28;20415;-64
2022/01/22 11:49:09;;;;;;;7.63;5.53;;;;;;;;;;5072363;28;20459;-65
2022/01/22 11:51:35;;;;;;;13.00;6.53;;;;;;;;;;5074171;28;20826;-63
2022/01/22 11:54:01;;;;;;;8.47;6.23;;;;;;;;;;5075909;28;20433;-64
2022/01/22 11:56:32;;;;;;;9.93;6.40;;;;;;;;;;5057871;28;20816;-65
2022/01/22 11:59:03;;;;;;;7.83;5.87;;;;;;;;;;5075912;28;20409;-67
2022/01/22 12:04:15;;;;;;;14.93;6.17;;;;;;;;;;5075823;28;20944;-63
2022/01/22 12:07:00;;;;;;;8.07;5.60;;;;;;;;;;5075740;28;20549;-65
2022/01/22 12:09:30;;;;;;;12.20;5.97;;;;;;;;;;5075568;28;20410;-64
2022/01/22 12:14:49;;;;;;;10.63;6.20;;;;;;;;;;5075650;28;20492;-62
2022/01/22 12:17:28;;;;;;;8.60;5.00;;;;;;;;;;5075464;28;20406;-64
2022/01/22 12:22:33;;;;;;;8.50;5.87;;;;;;;;;;5075424;28;20413;-65
2022/01/22 12:25:00;;;;;;;7.73;5.43;;;;;;;;;;5075389;28;20405;-64
2022/01/22 12:27:47;;;;;;;6.33;5.33;;;;;;;;;;5057257;28;20425;-65
2022/01/22 12:30:13;;;;;;;8.60;4.90;;;;;;;;;;5075229;28;20406;-65
2022/01/22 12:32:45;;;;;;;8.03;5.10;;;;;;;;;;5075263;28;20959;-63
2022/01/22 12:35:14;;;;;;;6.93;5.20;;;;;;;;;;5075235;28;20468;-64
2022/01/22 12:37:44;;;;;;;6.87;5.60;;;;;;;;;;5075058;28;20407;-65
2022/01/22 12:40:11;;;;;;;7.53;4.93;;;;;;;;;;5075049;28;20433;-63
2022/01/22 12:42:53;;;;;;;6.07;4.60;;;;;;;;;;5075100;28;20432;-63
2022/01/22 12:45:21;;;;;;;7.07;5.00;;;;;;;;;;5074962;28;20425;-64
2022/01/22 12:47:48;;;;;;;9.23;4.97;;;;;;;;;;5074957;28;20458;-65
2022/01/22 12:50:14;;;;;;;8.60;4.70;;;;;;;;;;5056807;28;20459;-63
2022/01/22 12:52:45;;;;;;;7.23;5.43;;;;;;;;;;5074838;28;20537;-68
2022/01/22 12:55:19;;;;;;;6.97;4.30;;;;;;;;;;5074782;28;20493;-66
2022/01/22 12:57:45;;;;;;;6.10;4.27;;;;;;;;;;5074854;28;20447;-71
2022/01/22 13:00:18;;;;;;;6.37;4.77;;;;;;;;;;5074390;28;20469;-72
2022/01/22 13:02:45;;;;;;;6.60;4.90;;;;;;;;;;5073783;28;20402;-69
2022/01/22 13:05:12;;;;;;;5.80;4.90;;;;;;;;;;5074650;28;20456;-69
2022/01/22 13:07:43;;;;;;;9.03;4.03;;;;;;;;;;5074514;28;20422;-73
2022/01/22 13:10:10;;;;;;;6.10;4.67;;;;;;;;;;5074452;28;20397;-73
2022/01/22 13:12:37;;;;;;;7.50;5.30;;;;;;;;;;5074388;28;20461;-70
2022/01/22 13:15:04;;;;;;;8.20;5.00;;;;;;;;;;5074358;28;20410;-66
2022/01/22 13:17:32;;;;;;;9.53;5.53;;;;;;;;;;5074286;28;20484;-69
2022/01/22 13:19:59;;;;;;;6.90;4.53;;;;;;;;;;5074315;28;20420;-70
2022/01/22 13:22:51;;;;;;;6.50;5.13;;;;;;;;;;5074289;28;20406;-70
2022/01/22 13:25:18;;;;;;;5.67;4.80;;;;;;;;;;5069758;28;20418;-73
2022/01/22 13:27:58;;;;;;;9.20;5.37;;;;;;;;;;5074050;28;20417;-70
2022/01/22 13:30:31;;;;;;;9.13;5.00;;;;;;;;;;5074103;28;20398;-63
2022/01/22 13:33:05;;;;;;;8.43;5.63;;;;;;;;;;5073954;28;20476;-63
2022/01/22 13:48:58;;;;;;;11.17;6.47;;;;;;;;;;5073675;28;20756;-63
2022/01/22 13:51:25;;;;;;;11.40;7.30;;;;;;;;;;5073691;28;20398;-63
2022/01/22 13:53:51;;;;;;;8.10;5.73;;;;;;;;;;5073581;28;20477;-64
2022/01/22 13:56:18;;;;;;;8.47;5.83;;;;;;;;;;5073544;28;20454;-67
2022/01/22 13:58:44;;;;;;;11.50;6.60;;;;;;;;;;5073774;28;20502;-65
2022/01/22 14:01:19;;;;;;;10.60;5.90;;;;;;;;;;5073290;28;20582;-65
2022/01/22 14:04:04;;;;;;;8.33;6.50;;;;;;;;;;5073624;28;20440;-64
2022/01/22 14:06:33;;;;;;;10.20;6.60;;;;;;;;;;5073496;28;20431;-65
2022/01/22 14:09:11;;;;;;;11.37;6.30;;;;;;;;;;5073370;28;20415;-62
2022/01/22 14:11:38;;;;;;;10.67;6.20;;;;;;;;;;5055467;28;20764;-63
2022/01/22 14:14:05;;;;;;;9.07;5.90;;;;;;;;;;5073335;28;20413;-63
2022/01/22 14:16:33;;;;;;;7.57;5.33;;;;;;;;;;5073352;28;20436;-67
2022/01/22 14:18:59;;;;;;;10.30;6.00;;;;;;;;;;5073334;28;20928;-63
2022/01/22 14:21:25;;;;;;;12.77;7.30;;;;;;;;;;5073319;28;20408;-64
2022/01/22 14:23:52;;;;;;;9.07;6.83;;;;;;;;;;5073280;28;20407;-64
2022/01/22 14:26:23;;;;;;;11.97;7.80;;;;;;;;;;5073224;28;20401;-65
2022/01/22 14:28:50;;;;;;;10.93;7.10;;;;;;;;;;5073176;28;20489;-64
2022/01/22 14:31:27;;;;;;;9.73;6.50;;;;;;;;;;5073279;28;20493;-64
2022/01/22 14:33:54;;;;;;;10.50;6.60;;;;;;;;;;5073020;28;20464;-67
2022/01/22 14:36:22;;;;;;;8.17;6.47;;;;;;;;;;5073074;28;20406;-65
2022/01/22 14:44:28;;;;;;;10.70;7.37;;;;;;;;;;5073357;28;20902;-67
2022/01/22 14:47:01;;;;;;;11.53;7.20;;;;;;;;;;5073024;28;20778;-65
2022/01/22 14:49:33;;;;;;;11.37;7.60;;;;;;;;;;5072834;28;20479;-65
2022/01/22 14:52:00;;;;;;;9.70;7.00;;;;;;;;;;5072943;28;20461;-65
2022/01/22 14:54:28;;;;;;;10.70;6.20;;;;;;;;;;5072901;28;20448;-68
2022/01/22 14:56:54;;;;;;;13.50;6.83;;;;;;;;;;5072851;28;20422;-66
2022/01/22 14:59:20;;;;;;;11.93;6.93;;;;;;;;;;5072898;28;20421;-64
2022/01/22 15:01:46;;;;;;;12.67;7.40;;;;;;;;;;5072812;28;20464;-64
2022/01/22 15:04:12;;;;;;;16.80;8.10;;;;;;;;;;5072684;28;20413;-67
2022/01/22 15:06:39;;;;;;;10.43;6.90;;;;;;;;;;5072618;28;20414;-66
2022/01/22 15:09:06;;;;;;;9.83;7.23;;;;;;;;;;5072620;28;20465;-65
2022/01/22 15:11:33;;;;;;;9.50;6.50;;;;;;;;;;5072871;28;20401;-69
2022/01/22 15:14:01;;;;;;;10.33;7.37;;;;;;;;;;5072738;28;20507;-66
2022/01/22 15:16:35;;;;;;;10.70;7.20;;;;;;;;;;5072573;28;20413;-65
2022/01/22 15:19:03;;;;;;;14.33;7.27;;;;;;;;;;5072814;28;20394;-66
2022/01/22 15:21:29;;;;;;;9.67;6.90;;;;;;;;;;5072829;28;20909;-66
2022/01/22 15:23:55;;;;;;;11.40;6.90;;;;;;;;;;5072803;28;20410;-71
2022/01/22 15:26:22;;;;;;;10.63;7.47;;;;;;;;;;5074342;28;20413;-63
2022/01/22 15:28:48;;;;;;;13.70;8.00;;;;;;;;;;5058467;28;20779;-67
2022/01/22 15:31:30;;;;;;;17.40;9.83;;;;;;;;;;5076383;28;20426;-66
2022/01/22 15:34:13;;;;;;;13.47;8.60;;;;;;;;;;5076321;28;20879;-65
2022/01/22 15:36:40;;;;;;;15.00;8.60;;;;;;;;;;5076248;28;20465;-67
2022/01/22 15:39:07;;;;;;;13.50;8.90;;;;;;;;;;5076287;28;20732;-67
2022/01/22 15:41:33;;;;;;;14.27;8.17;;;;;;;;;;5076258;28;20500;-65
2022/01/22 15:44:04;;;;;;;12.97;8.17;;;;;;;;;;5076102;28;20489;-65
2022/01/22 15:46:31;;;;;;;17.67;9.33;;;;;;;;;;5076095;28;20489;-67
2022/01/22 15:48:57;;;;;;;16.23;8.80;;;;;;;;;;5075942;28;20408;-65
2022/01/22 15:51:23;;;;;;;14.20;8.50;;;;;;;;;;5076062;28;20417;-65
2022/01/22 15:53:49;;;;;;;15.13;9.47;;;;;;;;;;5075995;28;20465;-68
2022/01/22 15:56:15;;;;;;;8.93;6.20;;;;;;;;;;5075844;28;20906;-64
2022/01/22 15:58:41;;;;;;;13.77;9.00;;;;;;;;;;5076031;28;20976;-65
2022/01/22 16:01:09;;;;;;;16.73;8.33;;;;;;;;;;5075635;28;20817;-65
2022/01/22 16:03:35;;;;;;;13.30;7.53;;;;;;;;;;5075977;28;20386;-67
2022/01/22 16:06:08;;;;;;;10.47;7.10;;;;;;;;;;5075817;28;20915;-72
2022/01/22 16:08:34;;;;;;;12.97;8.67;;;;;;;;;;5075753;28;20459;-74
2022/01/22 16:11:00;;;;;;;11.23;7.70;;;;;;;;;;5075863;28;20438;-74
2022/01/22 16:13:27;;;;;;;11.60;7.10;;;;;;;;;;5075629;28;20468;-75
2022/01/22 16:15:53;;;;;;;12.30;7.93;;;;;;;;;;5075626;28;20878;-72
2022/01/22 16:18:19;;;;;;;17.17;9.17;;;;;;;;;;5075644;28;20409;-72
2022/01/22 16:20:45;;;;;;;13.70;7.97;;;;;;;;;;5075614;28;20390;-64
2022/01/22 16:23:11;;;;;;;13.97;7.97;;;;;;;;;;5075456;28;20417;-64
2022/01/22 16:25:37;;;;;;;15.33;8.90;;;;;;;;;;5075352;28;20404;-64
2022/01/22 16:28:05;;;;;;;12.37;8.00;;;;;;;;;;5075293;28;20413;-65
2022/01/22 16:30:30;;;;;;;12.87;7.77;;;;;;;;;;5075226;28;20401;-64
2022/01/22 16:32:56;;;;;;;14.70;8.70;;;;;;;;;;5075211;28;20572;-64
2022/01/22 16:35:22;;;;;;;12.63;7.90;;;;;;;;;;5075288;28;20402;-69
2022/01/22 16:37:48;;;;;;;14.23;9.07;;;;;;;;;;5074037;28;20402;-67
2022/01/22 16:40:23;;;;;;;13.93;7.83;;;;;;;;;;5075251;28;20395;-65
2022/01/22 16:42:58;;;;;;;15.63;8.00;;;;;;;;;;5075202;28;20418;-64
2022/01/22 16:59:12;;;;;;;17.93;9.23;;;;;;;;;;5053001;28;20790;-65
2022/01/22 17:01:44;;;;;;;20.00;10.47;;;;;;;;;;5074601;28;20944;-67